Time;durP1;ratioP1;P1;durP2;ratioP2;P2;SDS_P1;SDS_P2;PMS_P1;PMS_P2;Temp;Humidity;BMP_temperature;BMP_pressure;BME280_temperature;BME280_humidity;BME280_pressure;Samples;Min_cycle;Max_cycle;Signal;HPM_P1;HPM_P2
2023/01/28 00:01:00;;;;;;;54.10;19.10;;;;;;;;;;105926;1290;25375;-84
2023/01/28 00:04:29;;;;;;;52.80;18.50;;;;;;;;;;106034;1291;22553;-87
2023/01/28 00:06:46;;;;;;;56.50;20.80;;;;;;;;;;105975;1291;22577;-88
2023/01/28 00:10:15;;;;;;;50.20;18.20;;;;;;;;;;105935;1282;22556;-86
2023/01/28 00:16:25;;;;;;;;;;;;;;;;;;;;;
2023/01/28 00:19:53;;;;;;;;;;;;;;;;;;;;;
2023/01/28 00:23:01;;;;;;;45.80;17.80;;;;;;;;;;105230;1299;25318;-86
2023/01/28 00:25:54;;;;;;;43.40;17.10;;;;;;;;;;105099;1299;23910;-89
2023/01/28 00:29:32;;;;;;;49.60;19.80;;;;;;;;;;105196;1277;24202;-85
2023/01/28 00:32:09;;;;;;;50.90;19.50;;;;;;;;;;105768;1292;22582;-84
2023/01/28 00:35:29;;;;;;;47.50;16.90;;;;;;;;;;105818;1292;24262;-84
2023/01/28 00:38:39;;;;;;;46.50;17.30;;;;;;;;;;105848;1292;24224;-85
2023/01/28 00:41:51;;;;;;;46.70;16.30;;;;;;;;;;105775;1274;24385;-87
2023/01/28 00:44:39;;;;;;;45.90;18.10;;;;;;;;;;109361;1289;22410;-81
2023/01/28 00:47:57;;;;;;;;;;;;;;;;;;;;;
2023/01/28 00:50:49;;;;;;;;;;;;;;;;;;;;;
2023/01/28 00:53:49;;;;;;;46.70;16.70;;;;;;;;;;108607;1299;22076;-81
2023/01/28 00:56:22;;;;;;;41.30;14.60;;;;;;;;;;108926;1293;22861;-82
2023/01/28 00:58:57;;;;;;;48.20;18.20;;;;;;;;;;109202;1287;21875;-82
2023/01/28 01:01:39;;;;;;;45.00;17.00;;;;;;;;;;109752;1269;22835;-81
2023/01/28 01:04:25;;;;;;;64.70;18.00;;;;;;;;;;109625;1289;22217;-82
2023/01/28 01:06:58;;;;;;;61.40;20.00;;;;;;;;;;109591;1289;22190;-81
2023/01/28 01:09:34;;;;;;;47.50;16.70;;;;;;;;;;109701;1289;22168;-82
2023/01/28 01:12:01;;;;;;;41.20;15.50;;;;;;;;;;109603;1273;22179;-82
2023/01/28 01:14:28;;;;;;;37.00;13.40;;;;;;;;;;109725;1288;22162;-81
2023/01/28 01:16:58;;;;;;;44.20;18.70;;;;;;;;;;109587;1289;22159;-81
2023/01/28 01:19:30;;;;;;;77.70;22.30;;;;;;;;;;109599;1288;22156;-82
2023/01/28 01:22:05;;;;;;;46.70;16.90;;;;;;;;;;109892;1270;22439;-82
2023/01/28 01:24:32;;;;;;;36.60;14.30;;;;;;;;;;109855;1285;22180;-81
2023/01/28 01:27:02;;;;;;;45.50;16.00;;;;;;;;;;110028;1280;22139;-82
2023/01/28 01:29:29;;;;;;;51.40;20.40;;;;;;;;;;110085;1279;22466;-82
2023/01/28 01:32:04;;;;;;;37.80;16.10;;;;;;;;;;110213;1266;22118;-82
2023/01/28 01:34:44;;;;;;;37.20;15.90;;;;;;;;;;110161;1279;22071;-82
2023/01/28 01:37:20;;;;;;;32.30;14.30;;;;;;;;;;110147;1279;22220;-82
2023/01/28 01:40:00;;;;;;;;;;;;;;;;;;;;;
2023/01/28 01:42:37;;;;;;;35.40;16.90;;;;;;;;;;110435;1263;22143;-81
2023/01/28 01:45:17;;;;;;;45.30;17.60;;;;;;;;;;110220;1279;22131;-82
2023/01/28 01:47:47;;;;;;;33.20;14.90;;;;;;;;;;110152;1279;22184;-82
2023/01/28 01:50:33;;;;;;;28.40;11.90;;;;;;;;;;110094;1279;22140;-81
2023/01/28 01:53:10;;;;;;;36.50;16.90;;;;;;;;;;110218;1266;22115;-82
2023/01/28 01:55:57;;;;;;;33.00;14.70;;;;;;;;;;110244;1280;22102;-81
2023/01/28 01:58:48;;;;;;;36.00;15.70;;;;;;;;;;110137;1280;22114;-82
2023/01/28 02:02:33;;;;;;;31.70;13.60;;;;;;;;;;109964;1265;22185;-82
2023/01/28 02:05:22;;;;;;;31.00;13.20;;;;;;;;;;109994;1284;22367;-81
2023/01/28 02:08:37;;;;;;;41.00;16.90;;;;;;;;;;109940;1284;22022;-81
2023/01/28 02:10:49;;;;;;;39.80;16.60;;;;;;;;;;109868;1284;22146;-82
2023/01/28 02:21:03;;;;;;;26.80;10.60;;;;;;;;;;109684;1285;22169;-82
2023/01/28 02:24:02;;;;;;;30.10;12.50;;;;;;;;;;109732;1269;22179;-82
2023/01/28 02:33:58;;;;;;;36.20;15.60;;;;;;;;;;109171;1276;22134;-82
2023/01/28 02:36:58;;;;;;;31.40;14.20;;;;;;;;;;109001;1295;22242;-82
2023/01/28 02:39:44;;;;;;;55.00;15.40;;;;;;;;;;109045;1295;22109;-81
2023/01/28 02:42:38;;;;;;;28.60;13.50;;;;;;;;;;108903;1287;22080;-82
2023/01/28 02:48:25;;;;;;;36.00;13.00;;;;;;;;;;109034;1295;22182;-82
2023/01/28 02:55:12;;;;;;;23.70;10.20;;;;;;;;;;109765;1269;22188;-82
2023/01/28 02:58:17;;;;;;;31.50;13.40;;;;;;;;;;109722;1287;22186;-81
2023/01/28 03:01:15;;;;;;;32.30;14.30;;;;;;;;;;109349;1292;22887;-82
2023/01/28 03:36:58;;;;;;;29.20;12.40;;;;;;;;;;109697;1286;22155;-82
2023/01/28 03:39:47;;;;;;;27.30;11.60;;;;;;;;;;109857;1285;22176;-82
2023/01/28 03:42:18;;;;;;;30.80;13.50;;;;;;;;;;109884;1285;22155;-82
2023/01/28 03:45:14;;;;;;;;;;;;;;;;;;;;;
2023/01/28 03:47:42;;;;;;;30.20;13.10;;;;;;;;;;110155;1279;21962;-82
2023/01/28 03:50:20;;;;;;;28.70;13.90;;;;;;;;;;110111;1279;22114;-82
2023/01/28 03:53:10;;;;;;;26.40;10.70;;;;;;;;;;110118;1279;22870;-82
2023/01/28 03:55:49;;;;;;;33.00;13.30;;;;;;;;;;110157;1261;22134;-82
2023/01/28 03:58:45;;;;;;;31.30;13.60;;;;;;;;;;110214;1278;22166;-81
2023/01/28 04:01:15;;;;;;;27.40;12.20;;;;;;;;;;110154;1277;22095;-82
2023/01/28 04:03:45;;;;;;;28.70;13.40;;;;;;;;;;110190;1279;22160;-82
2023/01/28 04:06:59;;;;;;;32.90;14.40;;;;;;;;;;109938;1267;22050;-81
2023/01/28 04:10:27;;;;;;;27.20;12.90;;;;;;;;;;109678;1283;22889;-82
2023/01/28 04:13:21;;;;;;;;;;;;;;;;;;;;;
2023/01/28 04:26:57;;;;;;;24.90;9.50;;;;;;;;;;109159;1284;22145;-82
2023/01/28 04:29:28;;;;;;;19.00;8.40;;;;;;;;;;109124;1294;22271;-82
2023/01/28 04:32:12;;;;;;;23.70;9.90;;;;;;;;;;108919;1294;22164;-81
2023/01/28 04:34:58;;;;;;;24.10;11.40;;;;;;;;;;109072;1294;22833;-82
2023/01/28 04:38:15;;;;;;;24.30;11.60;;;;;;;;;;108932;1287;22860;-81
2023/01/28 04:41:04;;;;;;;19.70;6.80;;;;;;;;;;108990;1295;22204;-81
2023/01/28 04:43:33;;;;;;;26.10;11.90;;;;;;;;;;109056;1290;22201;-82
2023/01/28 04:46:28;;;;;;;31.00;13.40;;;;;;;;;;109654;1267;22455;-81
2023/01/28 05:04:16;;;;;;;28.40;11.60;;;;;;;;;;109561;1290;22152;-81
2023/01/28 05:06:52;;;;;;;28.50;11.80;;;;;;;;;;109488;1272;22883;-81
2023/01/28 05:09:23;;;;;;;26.40;11.90;;;;;;;;;;109477;1290;22200;-82
2023/01/28 05:11:51;;;;;;;28.40;13.10;;;;;;;;;;109410;1290;22187;-81
2023/01/28 05:14:18;;;;;;;32.30;14.90;;;;;;;;;;109369;1290;22172;-82
2023/01/28 05:24:14;;;;;;;;;;;;;;;;;;;;;
2023/01/28 05:26:44;;;;;;;28.50;9.80;;;;;;;;;;109184;1270;22210;-81
2023/01/28 05:29:30;;;;;;;29.40;13.20;;;;;;;;;;109230;1289;22284;-82
2023/01/28 05:32:15;;;;;;;28.20;11.30;;;;;;;;;;109713;1287;22206;-82
2023/01/28 05:34:45;;;;;;;30.20;13.10;;;;;;;;;;109703;1287;22133;-82
2023/01/28 05:37:14;;;;;;;29.40;11.70;;;;;;;;;;109568;1267;22477;-82
2023/01/28 05:39:41;;;;;;;31.90;15.00;;;;;;;;;;109692;1286;22255;-82
2023/01/28 05:42:22;;;;;;;;;;;;;;;;;;;;;
2023/01/28 05:45:00;;;;;;;31.90;13.30;;;;;;;;;;109764;1286;22986;-82
2023/01/28 05:47:43;;;;;;;26.10;12.40;;;;;;;;;;109817;1269;22179;-82
2023/01/28 05:50:48;;;;;;;32.80;13.00;;;;;;;;;;109745;1286;22890;-81
2023/01/28 05:53:31;;;;;;;33.60;14.10;;;;;;;;;;109707;1286;22169;-82
2023/01/28 05:55:57;;;;;;;28.10;13.90;;;;;;;;;;109699;1280;22148;-82
2023/01/28 05:58:34;;;;;;;23.70;11.40;;;;;;;;;;110288;1263;22181;-82
2023/01/28 06:01:06;;;;;;;25.70;11.00;;;;;;;;;;110152;1279;22047;-82
2023/01/28 06:03:42;;;;;;;31.20;13.20;;;;;;;;;;110158;1279;22749;-81
2023/01/28 06:06:09;;;;;;;26.30;12.00;;;;;;;;;;110127;1279;22818;-82
2023/01/28 06:08:39;;;;;;;29.20;12.70;;;;;;;;;;110253;1259;22774;-82
2023/01/28 06:11:08;;;;;;;26.30;12.10;;;;;;;;;;110179;1279;22133;-82
2023/01/28 06:13:40;;;;;;;25.40;12.20;;;;;;;;;;110119;1279;22094;-82
2023/01/28 06:16:47;;;;;;;27.60;11.40;;;;;;;;;;110012;1279;22844;-82
2023/01/28 06:19:33;;;;;;;25.10;11.70;;;;;;;;;;110429;1263;22437;-82
2023/01/28 06:22:30;;;;;;;24.50;11.80;;;;;;;;;;110157;1279;22746;-82
2023/01/28 06:25:00;;;;;;;22.60;10.00;;;;;;;;;;110025;1281;22171;-82
2023/01/28 06:31:29;;;;;;;24.30;11.00;;;;;;;;;;110440;1257;22087;-82
2023/01/28 06:34:07;;;;;;;28.80;12.60;;;;;;;;;;109977;1281;22138;-82
2023/01/28 06:36:38;;;;;;;43.80;19.30;;;;;;;;;;110043;1281;22132;-82
2023/01/28 06:39:12;;;;;;;48.90;17.40;;;;;;;;;;110030;1281;21973;-83
2023/01/28 06:41:39;;;;;;;38.30;18.00;;;;;;;;;;110421;1263;22853;-82
2023/01/28 06:44:19;;;;;;;25.40;12.60;;;;;;;;;;110024;1281;23160;-82
2023/01/28 06:47:08;;;;;;;22.00;10.10;;;;;;;;;;110106;1281;22154;-82
2023/01/28 06:49:58;;;;;;;28.20;12.80;;;;;;;;;;110030;1278;22377;-82
2023/01/28 06:52:25;;;;;;;24.70;11.20;;;;;;;;;;110031;1271;22110;-82
2023/01/28 06:54:53;;;;;;;25.70;12.90;;;;;;;;;;110027;1276;22778;-82
2023/01/28 06:57:23;;;;;;;24.10;11.50;;;;;;;;;;110022;1281;21989;-82
2023/01/28 06:59:58;;;;;;;31.40;14.70;;;;;;;;;;110108;1281;22298;-82
2023/01/28 07:02:29;;;;;;;26.20;13.90;;;;;;;;;;110372;1260;22176;-82
2023/01/28 07:04:58;;;;;;;22.10;12.20;;;;;;;;;;110013;1281;22121;-82
2023/01/28 07:07:25;;;;;;;20.00;11.00;;;;;;;;;;110031;1280;22129;-82
2023/01/28 07:09:52;;;;;;;19.20;10.70;;;;;;;;;;110019;1281;22847;-82
2023/01/28 07:12:29;;;;;;;21.60;10.90;;;;;;;;;;110243;1260;22147;-83
2023/01/28 07:14:57;;;;;;;19.80;9.30;;;;;;;;;;110030;1281;22160;-82
2023/01/28 07:17:34;;;;;;;16.50;8.20;;;;;;;;;;110113;1281;22748;-82
2023/01/28 07:23:20;;;;;;;14.90;7.50;;;;;;;;;;110297;1263;22140;-82
2023/01/28 07:25:49;;;;;;;16.90;7.20;;;;;;;;;;110047;1281;21996;-83
2023/01/28 07:28:22;;;;;;;17.40;8.60;;;;;;;;;;110015;1281;22124;-83
2023/01/28 07:31:09;;;;;;;14.20;7.80;;;;;;;;;;110076;1281;22129;-82
2023/01/28 07:34:26;;;;;;;16.90;7.30;;;;;;;;;;110136;1261;22551;-83
2023/01/28 07:37:02;;;;;;;14.00;5.50;;;;;;;;;;110096;1281;22761;-82
2023/01/28 07:39:42;;;;;;;;;;;;;;;;;;;;;
2023/01/28 07:42:11;;;;;;;10.60;5.10;;;;;;;;;;110036;1281;22142;-82
2023/01/28 07:52:41;;;;;;;;;;;;;;;;;;;;;
2023/01/28 07:56:01;;;;;;;12.40;6.00;;;;;;;;;;109694;1270;22951;-83
2023/01/28 07:58:33;;;;;;;16.30;6.80;;;;;;;;;;109472;1290;22872;-83
2023/01/28 08:01:06;;;;;;;17.60;7.90;;;;;;;;;;109533;1290;22103;-83
2023/01/28 08:03:45;;;;;;;15.10;6.70;;;;;;;;;;109448;1289;22253;-83
2023/01/28 08:06:36;;;;;;;15.00;6.60;;;;;;;;;;109656;1272;22145;-83
2023/01/28 08:09:08;;;;;;;18.50;8.70;;;;;;;;;;109510;1290;22168;-83
2023/01/28 08:11:39;;;;;;;16.30;7.90;;;;;;;;;;109410;1290;22826;-83
2023/01/28 08:14:19;;;;;;;36.80;16.10;;;;;;;;;;109657;1290;22154;-83
2023/01/28 08:32:06;;;;;;;;;;;;;;;;;;;;;
2023/01/28 08:35:48;;;;;;;33.50;16.80;;;;;;;;;;106160;1287;24220;-85
2023/01/28 08:38:53;;;;;;;23.20;12.60;;;;;;;;;;106384;1287;25244;-88
2023/01/28 08:42:24;;;;;;;37.90;18.10;;;;;;;;;;106099;1288;24282;-86
2023/01/28 08:44:48;;;;;;;24.70;11.20;;;;;;;;;;104502;1286;2197320;-89
2023/01/28 08:47:35;;;;;;;;;;;;;;;;;;;;;
2023/01/28 08:50:28;;;;;;;20.80;11.40;;;;;;;;;;106368;1262;25287;-88
2023/01/28 08:53:17;;;;;;;24.50;14.50;;;;;;;;;;106375;1284;25372;-87
2023/01/28 08:55:56;;;;;;;23.90;12.40;;;;;;;;;;106234;1285;22558;-85
2023/01/28 08:58:41;;;;;;;20.20;10.40;;;;;;;;;;106291;1285;25448;-85
2023/01/28 09:01:46;;;;;;;22.10;11.30;;;;;;;;;;106396;1285;25490;-85
2023/01/28 09:04:37;;;;;;;22.10;12.10;;;;;;;;;;106244;1285;25370;-86
2023/01/28 09:07:24;;;;;;;22.10;11.50;;;;;;;;;;106050;1285;22537;-89
2023/01/28 09:09:58;;;;;;;25.80;14.80;;;;;;;;;;106068;1284;24260;-84
2023/01/28 09:12:48;;;;;;;20.00;11.80;;;;;;;;;;106210;1269;23772;-83
2023/01/28 09:15:50;;;;;;;;;;;;;;;;;;;;;
2023/01/28 09:18:36;;;;;;;24.40;13.00;;;;;;;;;;107178;1276;25185;-82
2023/01/28 09:21:19;;;;;;;20.60;10.90;;;;;;;;;;106853;1254;24444;-86
2023/01/28 09:24:11;;;;;;;24.70;11.10;;;;;;;;;;107075;1274;22561;-84
2023/01/28 09:27:11;;;;;;;24.50;11.60;;;;;;;;;;107122;1278;24190;-85
2023/01/28 09:30:10;;;;;;;21.20;10.50;;;;;;;;;;107086;1278;22740;-84
2023/01/28 09:34:00;;;;;;;26.60;13.10;;;;;;;;;;106917;1263;22538;-90
2023/01/28 09:37:00;;;;;;;39.30;17.70;;;;;;;;;;109912;1285;22334;-83
2023/01/28 09:39:49;;;;;;;49.80;20.80;;;;;;;;;;109919;1285;23106;-83
2023/01/28 09:42:36;;;;;;;37.30;17.00;;;;;;;;;;109908;1267;22976;-83
2023/01/28 09:48:31;;;;;;;;;;;;;;;;;;;;;
2023/01/28 09:50:59;;;;;;;23.90;11.50;;;;;;;;;;109801;1284;22185;-84
2023/01/28 09:53:36;;;;;;;33.90;15.90;;;;;;;;;;109789;1270;22198;-84
2023/01/28 09:56:24;;;;;;;31.90;15.10;;;;;;;;;;109863;1285;22160;-84
2023/01/28 09:59:25;;;;;;;27.70;13.00;;;;;;;;;;109819;1285;22185;-84
2023/01/28 10:02:24;;;;;;;24.20;13.00;;;;;;;;;;109716;1264;22155;-84
2023/01/28 10:05:26;;;;;;;48.10;19.20;;;;;;;;;;109298;1292;22595;-84
2023/01/28 10:07:53;;;;;;;27.60;12.90;;;;;;;;;;109254;1292;22243;-84
2023/01/28 10:10:25;;;;;;;31.80;13.80;;;;;;;;;;109279;1292;22817;-84
2023/01/28 10:12:51;;;;;;;32.70;14.10;;;;;;;;;;109494;1271;22158;-84
2023/01/28 10:15:21;;;;;;;41.00;17.30;;;;;;;;;;109869;1285;22171;-84
2023/01/28 10:17:51;;;;;;;36.90;17.30;;;;;;;;;;109891;1285;22994;-84
2023/01/28 10:20:21;;;;;;;28.00;13.20;;;;;;;;;;109877;1285;22285;-84
2023/01/28 10:23:28;;;;;;;55.50;24.40;;;;;;;;;;109945;1268;22821;-84
2023/01/28 10:26:00;;;;;;;24.60;11.10;;;;;;;;;;109740;1286;22830;-84
2023/01/28 10:28:31;;;;;;;22.50;11.10;;;;;;;;;;109909;1285;22942;-84
2023/01/28 10:31:44;;;;;;;24.20;11.50;;;;;;;;;;109781;1285;22081;-84
2023/01/28 10:34:37;;;;;;;27.70;13.20;;;;;;;;;;109926;1267;22188;-84
2023/01/28 10:37:04;;;;;;;23.90;12.80;;;;;;;;;;109786;1280;22184;-84
2023/01/28 10:39:33;;;;;;;24.30;11.70;;;;;;;;;;109762;1279;22415;-84
2023/01/28 10:41:59;;;;;;;25.00;12.30;;;;;;;;;;110172;1278;22136;-84
2023/01/28 10:44:50;;;;;;;41.70;16.30;;;;;;;;;;110411;1270;22209;-84
2023/01/28 10:47:26;;;;;;;40.00;14.90;;;;;;;;;;110183;1277;22860;-84
2023/01/28 10:50:34;;;;;;;;;;;;;;;;;;;;;
2023/01/28 10:53:39;;;;;;;;;;;;;;;;;;;;;
2023/01/28 10:56:14;;;;;;;27.50;11.50;;;;;;;;;;110193;1276;22394;-83
2023/01/28 10:59:33;;;;;;;22.80;10.60;;;;;;;;;;110156;1273;22870;-84
2023/01/28 11:02:37;;;;;;;25.30;12.00;;;;;;;;;;110319;1278;23145;-84
2023/01/28 11:05:39;;;;;;;23.90;12.30;;;;;;;;;;110308;1258;22168;-84
2023/01/28 11:08:19;;;;;;;29.60;12.00;;;;;;;;;;110136;1277;22158;-84
2023/01/28 11:11:28;;;;;;;;;;;;;;;;;;;;;
2023/01/28 11:14:31;;;;;;;31.30;14.50;;;;;;;;;;109957;1261;22215;-84
2023/01/28 11:18:00;;;;;;;25.80;15.10;;;;;;;;;;109834;1284;22178;-84
2023/01/28 11:20:44;;;;;;;20.60;13.20;;;;;;;;;;109927;1284;22199;-83
2023/01/28 11:24:18;;;;;;;;;;;;;;;;;;;;;
2023/01/28 11:27:11;;;;;;;30.60;12.10;;;;;;;;;;109144;1293;22531;-83
2023/01/28 11:29:49;;;;;;;21.20;9.90;;;;;;;;;;108977;1294;22070;-83
2023/01/28 11:32:31;;;;;;;19.70;9.40;;;;;;;;;;109135;1294;23002;-82
2023/01/28 11:35:32;;;;;;;38.30;14.70;;;;;;;;;;109085;1276;22081;-83
2023/01/28 11:38:21;;;;;;;16.50;7.60;;;;;;;;;;109102;1294;22772;-83
2023/01/28 11:40:59;;;;;;;16.80;9.50;;;;;;;;;;109276;1291;22261;-84
2023/01/28 11:43:34;;;;;;;17.80;7.80;;;;;;;;;;109461;1291;22161;-83
2023/01/28 11:47:09;;;;;;;20.70;10.30;;;;;;;;;;109445;1273;23058;-84
2023/01/28 11:49:51;;;;;;;21.60;13.50;;;;;;;;;;109350;1292;22155;-84
2023/01/28 11:52:31;;;;;;;24.10;15.70;;;;;;;;;;109704;1287;22464;-84
2023/01/28 11:55:23;;;;;;;19.70;8.90;;;;;;;;;;109634;1268;22176;-83
2023/01/28 11:58:21;;;;;;;19.20;9.40;;;;;;;;;;109750;1287;22837;-83
2023/01/28 12:01:10;;;;;;;14.70;7.40;;;;;;;;;;110344;1274;22148;-84
2023/01/28 12:03:55;;;;;;;17.10;8.20;;;;;;;;;;110546;1274;22149;-84
2023/01/28 12:06:38;;;;;;;15.20;6.40;;;;;;;;;;110742;1256;22789;-83
2023/01/28 12:09:56;;;;;;;13.40;5.70;;;;;;;;;;110435;1275;22833;-84
2023/01/28 12:12:48;;;;;;;;;;;;;;;;;;;;;
2023/01/28 12:16:00;;;;;;;12.10;6.60;;;;;;;;;;110756;1253;22984;-83
2023/01/28 12:18:41;;;;;;;15.50;7.90;;;;;;;;;;110643;1274;23233;-83
2023/01/28 12:21:26;;;;;;;20.00;10.80;;;;;;;;;;110505;1274;22123;-83
2023/01/28 12:28:18;;;;;;;12.90;6.00;;;;;;;;;;110203;1262;22195;-84
2023/01/28 12:31:15;;;;;;;18.10;7.50;;;;;;;;;;110040;1282;22246;-84
2023/01/28 12:34:32;;;;;;;;;;;;;;;;;;;;;
2023/01/28 12:37:36;;;;;;;14.40;7.20;;;;;;;;;;109819;1268;22905;-84
2023/01/28 12:41:02;;;;;;;;;;;;;;;;;;;;;
2023/01/28 12:48:18;;;;;;;17.70;8.80;;;;;;;;;;109298;1275;22176;-84
2023/01/28 12:50:53;;;;;;;14.90;7.90;;;;;;;;;;109045;1293;22431;-84
2023/01/28 12:53:34;;;;;;;17.70;10.00;;;;;;;;;;109127;1293;22176;-84
2023/01/28 12:56:39;;;;;;;24.30;12.70;;;;;;;;;;109124;1270;22382;-84
2023/01/28 12:59:34;;;;;;;18.20;9.00;;;;;;;;;;109004;1293;22448;-84
2023/01/28 13:02:36;;;;;;;21.10;9.80;;;;;;;;;;109305;1293;22179;-84
2023/01/28 13:05:32;;;;;;;18.40;8.90;;;;;;;;;;109632;1289;22194;-84
2023/01/28 13:08:31;;;;;;;19.60;10.70;;;;;;;;;;109512;1268;22223;-84
2023/01/28 13:11:31;;;;;;;;;;;;;;;;;;;;;
2023/01/28 13:14:03;;;;;;;34.50;13.50;;;;;;;;;;109416;1277;22315;-84
2023/01/28 13:17:03;;;;;;;28.10;11.80;;;;;;;;;;109680;1265;23014;-83
2023/01/28 13:19:44;;;;;;;24.00;12.00;;;;;;;;;;109705;1287;22953;-83
2023/01/28 13:22:14;;;;;;;23.30;12.10;;;;;;;;;;109940;1283;22893;-83
2023/01/28 13:24:53;;;;;;;20.20;9.30;;;;;;;;;;109947;1283;22366;-83
2023/01/28 13:28:27;;;;;;;23.60;10.50;;;;;;;;;;109949;1259;22193;-82
2023/01/28 13:31:16;;;;;;;21.60;10.40;;;;;;;;;;110006;1282;22175;-82
2023/01/28 13:33:48;;;;;;;19.80;10.40;;;;;;;;;;110007;1277;23211;-82
2023/01/28 13:36:29;;;;;;;20.90;9.20;;;;;;;;;;110018;1282;21964;-82
2023/01/28 13:39:38;;;;;;;24.00;10.60;;;;;;;;;;110001;1265;23245;-82
2023/01/28 13:42:11;;;;;;;25.50;9.50;;;;;;;;;;109994;1283;22178;-81
2023/01/28 13:48:48;;;;;;;19.30;8.40;;;;;;;;;;110077;1259;22146;-82
2023/01/28 13:51:40;;;;;;;20.00;9.50;;;;;;;;;;109985;1278;22979;-83
2023/01/28 13:54:23;;;;;;;22.70;11.70;;;;;;;;;;109979;1281;22987;-83
2023/01/28 13:57:21;;;;;;;30.60;12.70;;;;;;;;;;110021;1279;22244;-83
2023/01/28 14:00:19;;;;;;;27.60;11.00;;;;;;;;;;110029;1261;22226;-83
2023/01/28 14:03:41;;;;;;;20.70;8.60;;;;;;;;;;110036;1279;22159;-83
2023/01/28 14:06:31;;;;;;;22.90;10.90;;;;;;;;;;110042;1277;22199;-83
2023/01/28 14:09:34;;;;;;;;;;;;;;;;;;;;;
2023/01/28 14:12:00;;;;;;;22.30;9.10;;;;;;;;;;110093;1281;22439;-83
2023/01/28 14:14:45;;;;;;;15.50;6.60;;;;;;;;;;110025;1281;22368;-83
2023/01/28 14:17:14;;;;;;;22.70;9.70;;;;;;;;;;109938;1278;22850;-82
2023/01/28 14:19:52;;;;;;;28.10;11.80;;;;;;;;;;110821;1253;22121;-82
2023/01/28 14:22:41;;;;;;;30.80;14.70;;;;;;;;;;110495;1275;22255;-81
2023/01/28 14:26:05;;;;;;;31.50;15.80;;;;;;;;;;110402;1276;22044;-83
2023/01/28 14:28:52;;;;;;;22.80;9.60;;;;;;;;;;110411;1254;22158;-83
2023/01/28 14:34:28;;;;;;;19.00;8.10;;;;;;;;;;110170;1277;22138;-83
2023/01/28 14:37:12;;;;;;;14.20;6.30;;;;;;;;;;110268;1275;22170;-82
2023/01/28 14:47:22;;;;;;;13.70;6.80;;;;;;;;;;109886;1281;22283;-83
2023/01/28 14:50:09;;;;;;;12.60;5.40;;;;;;;;;;109902;1268;22227;-83
2023/01/28 14:53:19;;;;;;;14.70;6.50;;;;;;;;;;109829;1283;22125;-83
2023/01/28 14:56:08;;;;;;;12.90;5.90;;;;;;;;;;109859;1285;22167;-83
2023/01/28 14:59:06;;;;;;;16.90;7.00;;;;;;;;;;109853;1286;22192;-83
2023/01/28 15:01:58;;;;;;;13.10;4.80;;;;;;;;;;109437;1285;22202;-84
2023/01/28 15:04:26;;;;;;;12.00;5.40;;;;;;;;;;109375;1291;22272;-83
2023/01/28 15:06:52;;;;;;;10.90;4.40;;;;;;;;;;109350;1291;22233;-83
2023/01/28 15:09:24;;;;;;;10.40;4.30;;;;;;;;;;109430;1290;22174;-83
2023/01/28 15:12:19;;;;;;;15.60;4.30;;;;;;;;;;109644;1273;22132;-83
2023/01/28 15:15:01;;;;;;;;;;;;;;;;;;;;;
2023/01/28 15:17:37;;;;;;;13.80;5.40;;;;;;;;;;109567;1291;22184;-83
2023/01/28 15:20:19;;;;;;;18.90;7.00;;;;;;;;;;109810;1260;22174;-83
2023/01/28 15:22:54;;;;;;;17.00;6.40;;;;;;;;;;109983;1284;22667;-83
2023/01/28 15:25:26;;;;;;;27.20;10.40;;;;;;;;;;109887;1284;22168;-83
2023/01/28 15:27:58;;;;;;;23.90;9.30;;;;;;;;;;109888;1283;22194;-83
2023/01/28 15:30:43;;;;;;;24.70;9.30;;;;;;;;;;109901;1262;22402;-84
2023/01/28 15:33:37;;;;;;;26.30;9.70;;;;;;;;;;109988;1277;22220;-84
2023/01/28 15:36:04;;;;;;;23.70;9.50;;;;;;;;;;109957;1283;22246;-84
2023/01/28 15:42:34;;;;;;;32.80;12.90;;;;;;;;;;109911;1267;22317;-86
2023/01/28 15:45:21;;;;;;;14.70;5.50;;;;;;;;;;109929;1284;22853;-85
2023/01/28 15:47:52;;;;;;;21.10;6.60;;;;;;;;;;109879;1284;22904;-85
2023/01/28 15:50:23;;;;;;;26.80;9.60;;;;;;;;;;109899;1279;22220;-85
2023/01/28 15:52:56;;;;;;;20.90;7.70;;;;;;;;;;109888;1283;22174;-85
2023/01/28 15:56:03;;;;;;;28.10;10.80;;;;;;;;;;109908;1279;22158;-86
2023/01/28 15:58:44;;;;;;;40.60;18.00;;;;;;;;;;109927;1283;22162;-85
2023/01/28 16:01:17;;;;;;;38.00;15.20;;;;;;;;;;109896;1267;22504;-85
2023/01/28 16:04:14;;;;;;;;;;;;;;;;;;;;;
2023/01/28 16:06:51;;;;;;;45.90;17.90;;;;;;;;;;109982;1283;23263;-85
2023/01/28 16:09:33;;;;;;;51.40;21.30;;;;;;;;;;109938;1278;22424;-85
2023/01/28 16:13:28;;;;;;;53.80;22.90;;;;;;;;;;109903;1263;22217;-85
2023/01/28 16:16:19;;;;;;;53.20;20.90;;;;;;;;;;109947;1283;22234;-86
2023/01/28 16:18:50;;;;;;;92.50;27.60;;;;;;;;;;109888;1284;22161;-84
2023/01/28 16:22:07;;;;;;;46.50;16.50;;;;;;;;;;109596;1270;22414;-84
2023/01/28 16:24:53;;;;;;;37.40;14.80;;;;;;;;;;109488;1286;22290;-84
2023/01/28 16:27:30;;;;;;;17.50;6.80;;;;;;;;;;109859;1285;22191;-85
2023/01/28 16:30:22;;;;;;;;;;;;;;;;;;;;;
2023/01/28 16:33:45;;;;;;;20.30;7.10;;;;;;;;;;109683;1270;22215;-85
2023/01/28 16:36:29;;;;;;;16.90;7.00;;;;;;;;;;109528;1272;22333;-84
2023/01/28 16:39:06;;;;;;;17.90;7.30;;;;;;;;;;109630;1289;22150;-82
2023/01/28 16:41:48;;;;;;;25.60;11.10;;;;;;;;;;109594;1268;22643;-83
2023/01/28 16:47:22;;;;;;;18.90;9.70;;;;;;;;;;109530;1289;22056;-85
2023/01/28 16:54:05;;;;;;;26.00;12.00;;;;;;;;;;109354;1273;22346;-84
2023/01/28 16:56:47;;;;;;;35.20;14.90;;;;;;;;;;109336;1292;22071;-84
2023/01/28 16:59:49;;;;;;;46.10;20.60;;;;;;;;;;109535;1289;21700;-84
2023/01/28 17:02:29;;;;;;;32.50;17.30;;;;;;;;;;109604;1267;22469;-84
2023/01/28 17:05:10;;;;;;;31.50;17.90;;;;;;;;;;109621;1290;22878;-84
2023/01/28 17:15:30;;;;;;;54.00;17.50;;;;;;;;;;110184;1266;22133;-85
2023/01/28 17:18:30;;;;;;;23.50;9.70;;;;;;;;;;110070;1278;22849;-84
2023/01/28 17:21:06;;;;;;;35.70;13.50;;;;;;;;;;110166;1278;22951;-84
2023/01/28 17:28:55;;;;;;;19.50;8.60;;;;;;;;;;103756;1295;545522;-87
2023/01/28 17:31:33;;;;;;;23.40;8.20;;;;;;;;;;106014;1283;24207;-87
2023/01/28 17:34:20;;;;;;;23.20;8.10;;;;;;;;;;106064;1288;22509;-89
2023/01/28 17:37:08;;;;;;;;;;;;;;;;;;;;;
2023/01/28 17:39:52;;;;;;;24.20;9.80;;;;;;;;;;105972;1269;22672;-85
2023/01/28 17:42:31;;;;;;;22.80;8.40;;;;;;;;;;102054;1285;5415127;-84
2023/01/28 17:45:51;;;;;;;;;;;;;;;;;;;;;
2023/01/28 17:48:51;;;;;;;;;;;;;;;;;;;;;
2023/01/28 17:51:41;;;;;;;14.70;6.30;;;;;;;;;;106469;1283;23140;-85
2023/01/28 17:54:19;;;;;;;14.30;6.70;;;;;;;;;;106454;1282;23420;-89
2023/01/28 17:56:59;;;;;;;19.40;8.60;;;;;;;;;;106477;1283;23008;-87
2023/01/28 17:59:52;;;;;;;18.30;8.00;;;;;;;;;;106364;1265;22580;-85
2023/01/28 18:02:45;;;;;;;24.00;10.00;;;;;;;;;;106333;1283;24200;-84
2023/01/28 18:05:14;;;;;;;18.50;7.70;;;;;;;;;;106693;1280;24298;-85
2023/01/28 18:08:47;;;;;;;17.80;8.90;;;;;;;;;;106994;1280;22567;-84
2023/01/28 18:11:15;;;;;;;;;;;;;;;;;;;;;
2023/01/28 18:14:33;;;;;;;;;;;;;;;;;;;;;
2023/01/28 18:17:15;;;;;;;28.50;12.20;;;;;;;;;;106650;1275;22549;-84
2023/01/28 18:21:08;;;;;;;21.40;8.70;;;;;;;;;;106818;1280;25602;-86
2023/01/28 18:23:29;;;;;;;20.70;8.50;;;;;;;;;;106636;1280;24310;-87
2023/01/28 18:26:17;;;;;;;16.70;7.20;;;;;;;;;;106551;1281;24234;-82
2023/01/28 18:29:24;;;;;;;17.90;8.00;;;;;;;;;;106861;1258;23760;-82
2023/01/28 18:32:35;;;;;;;29.90;12.60;;;;;;;;;;106855;1281;22507;-83
2023/01/28 18:35:22;;;;;;;19.70;8.40;;;;;;;;;;106915;1281;26357;-83
2023/01/28 18:37:52;;;;;;;27.50;13.30;;;;;;;;;;107287;1281;25492;-82
2023/01/28 18:41:05;;;;;;;32.70;14.00;;;;;;;;;;106481;1265;25540;-86
2023/01/28 18:43:41;;;;;;;19.40;7.70;;;;;;;;;;106526;1281;22562;-83
2023/01/28 18:53:33;;;;;;;20.70;7.70;;;;;;;;;;104005;1292;545742;-82
2023/01/28 18:56:41;;;;;;;21.90;8.40;;;;;;;;;;106344;1286;25612;-83
2023/01/28 18:59:28;;;;;;;18.00;6.80;;;;;;;;;;106758;1284;24194;-83
2023/01/28 19:02:04;;;;;;;26.10;8.60;;;;;;;;;;106464;1280;23243;-82
2023/01/28 19:04:54;;;;;;;23.70;8.30;;;;;;;;;;106146;1271;22547;-82
2023/01/28 19:07:30;;;;;;;15.80;4.50;;;;;;;;;;102552;1278;5404265;-81
2023/01/28 19:10:12;;;;;;;23.30;8.40;;;;;;;;;;106499;1278;25407;-83
2023/01/28 19:13:03;;;;;;;;;;;;;;;;;;;;;
2023/01/28 19:15:40;;;;;;;21.50;8.00;;;;;;;;;;106853;1275;22836;-82
2023/01/28 19:18:19;;;;;;;22.30;7.20;;;;;;;;;;106851;1275;22845;-82
2023/01/28 19:21:21;;;;;;;16.20;6.10;;;;;;;;;;106867;1278;22582;-88
2023/01/28 19:24:34;;;;;;;16.80;6.70;;;;;;;;;;106869;1275;22533;-83
2023/01/28 19:27:13;;;;;;;23.40;9.20;;;;;;;;;;106890;1277;22506;-84
2023/01/28 19:30:01;;;;;;;25.50;7.60;;;;;;;;;;106965;1275;22531;-87
2023/01/28 19:33:04;;;;;;;;;;;;;;;;;;;;;
2023/01/28 19:35:34;;;;;;;28.90;10.30;;;;;;;;;;107237;1259;22539;-84
2023/01/28 19:38:24;;;;;;;25.40;9.40;;;;;;;;;;106861;1275;24251;-84
2023/01/28 19:41:04;;;;;;;;;;;;;;;;;;;;;